Terminal Aerodrome Forecast
Issued by NWS

Home | Current Version | Previous Version | Text Only | Print | Product List | Glossary On
Versions: 1 2 3 4 5 6 7 8 9 10 11 12 13 14
000
FTPA31 PHFO 162359 AAA
TAFHJH
TAF AMD
PHJH 162359Z 1700/1724 18010KT P6SM VCSH SCT030 BKN045
      TEMPO 1700/1704 VRB06G15KT
     FM170500 18008KT P6SM VCSH SCT025 BKN040
     FM172000 19011KT P6SM FEW030 SCT050=

USA.gov is the U.S. government's official web portal to all federal, state and local government web resources and services.